sensor_id;sensor_type;location;lat;lon;timestamp;pressure;altitude;pressure_sealevel;temperature;humidity
9063;BME280;4567;42.118;24.746;2022-11-21T00:01:41;98537.22;;;14.77;95.03
9063;BME280;4567;42.118;24.746;2022-11-21T00:04:07;98528.78;;;14.70;95.03
9063;BME280;4567;42.118;24.746;2022-11-21T00:06:34;98528.88;;;14.73;95.31
9063;BME280;4567;42.118;24.746;2022-11-21T00:09:01;98512.03;;;14.78;94.92
9063;BME280;4567;42.118;24.746;2022-11-21T00:11:27;98480.13;;;14.77;95.33
9063;BME280;4567;42.118;24.746;2022-11-21T00:13:54;98461.59;;;14.78;95.47
9063;BME280;4567;42.118;24.746;2022-11-21T00:16:22;98464.28;;;14.74;95.95
9063;BME280;4567;42.118;24.746;2022-11-21T00:18:49;98462.97;;;14.68;96.86
9063;BME280;4567;42.118;24.746;2022-11-21T00:21:17;98446.41;;;14.68;97.13
9063;BME280;4567;42.118;24.746;2022-11-21T00:23:45;98446.16;;;14.73;97.63
9063;BME280;4567;42.118;24.746;2022-11-21T00:26:13;98441.56;;;14.81;97.48
9063;BME280;4567;42.118;24.746;2022-11-21T00:28:40;98440.53;;;14.89;97.14
9063;BME280;4567;42.118;24.746;2022-11-21T00:31:07;98431.88;;;14.90;96.70
9063;BME280;4567;42.118;24.746;2022-11-21T00:33:35;98433.47;;;14.91;96.74
9063;BME280;4567;42.118;24.746;2022-11-21T00:36:06;98410.19;;;14.89;96.46
9063;BME280;4567;42.118;24.746;2022-11-21T00:38:33;98422.31;;;14.84;96.18
9063;BME280;4567;42.118;24.746;2022-11-21T00:41:00;98427.56;;;14.70;95.67
9063;BME280;4567;42.118;24.746;2022-11-21T00:43:27;98433.06;;;14.70;96.05
9063;BME280;4567;42.118;24.746;2022-11-21T00:45:53;98420.88;;;14.71;96.34
9063;BME280;4567;42.118;24.746;2022-11-21T00:48:20;98425.31;;;14.76;96.34
9063;BME280;4567;42.118;24.746;2022-11-21T00:50:48;98423.78;;;14.78;95.88
9063;BME280;4567;42.118;24.746;2022-11-21T00:53:15;98410.56;;;14.68;94.55
9063;BME280;4567;42.118;24.746;2022-11-21T00:55:42;98404.63;;;14.47;95.06
9063;BME280;4567;42.118;24.746;2022-11-21T00:58:08;98453.09;;;14.29;96.62
9063;BME280;4567;42.118;24.746;2022-11-21T01:00:35;98471.44;;;14.22;99.41
9063;BME280;4567;42.118;24.746;2022-11-21T01:03:02;98491.91;;;14.05;100.00
9063;BME280;4567;42.118;24.746;2022-11-21T01:05:30;98503.34;;;14.07;100.00
9063;BME280;4567;42.118;24.746;2022-11-21T01:07:58;98539.53;;;14.06;100.00
9063;BME280;4567;42.118;24.746;2022-11-21T01:10:25;98526.66;;;13.94;100.00
9063;BME280;4567;42.118;24.746;2022-11-21T01:12:52;98525.44;;;13.92;100.00
9063;BME280;4567;42.118;24.746;2022-11-21T01:15:18;98539.44;;;13.86;100.00
9063;BME280;4567;42.118;24.746;2022-11-21T01:17:45;98565.59;;;13.77;100.00
9063;BME280;4567;42.118;24.746;2022-11-21T01:20:12;98541.44;;;13.86;100.00
9063;BME280;4567;42.118;24.746;2022-11-21T01:22:39;98589.56;;;13.92;100.00
9063;BME280;4567;42.118;24.746;2022-11-21T01:25:07;98621.28;;;14.02;100.00
9063;BME280;4567;42.118;24.746;2022-11-21T01:27:34;98573.03;;;13.92;100.00
9063;BME280;4567;42.118;24.746;2022-11-21T01:30:00;98530.94;;;13.76;100.00
9063;BME280;4567;42.118;24.746;2022-11-21T01:32:27;98438.91;;;13.77;100.00
9063;BME280;4567;42.118;24.746;2022-11-21T01:34:54;98395.28;;;13.79;100.00
9063;BME280;4567;42.118;24.746;2022-11-21T01:37:20;98424.03;;;13.97;100.00
9063;BME280;4567;42.118;24.746;2022-11-21T01:39:47;98416.38;;;13.90;100.00
9063;BME280;4567;42.118;24.746;2022-11-21T01:42:15;98447.78;;;13.86;100.00
9063;BME280;4567;42.118;24.746;2022-11-21T01:44:48;98449.97;;;13.96;100.00
9063;BME280;4567;42.118;24.746;2022-11-21T01:47:15;98436.34;;;14.03;100.00
9063;BME280;4567;42.118;24.746;2022-11-21T01:49:42;98444.94;;;14.17;100.00
9063;BME280;4567;42.118;24.746;2022-11-21T01:52:12;98444.03;;;14.29;100.00
9063;BME280;4567;42.118;24.746;2022-11-21T01:54:44;98451.22;;;14.33;100.00
9063;BME280;4567;42.118;24.746;2022-11-21T01:57:14;98464.56;;;14.31;100.00
9063;BME280;4567;42.118;24.746;2022-11-21T01:59:48;98483.69;;;14.24;100.00
9063;BME280;4567;42.118;24.746;2022-11-21T02:02:20;98477.09;;;14.29;100.00
9063;BME280;4567;42.118;24.746;2022-11-21T02:04:48;98473.28;;;14.33;100.00
9063;BME280;4567;42.118;24.746;2022-11-21T02:07:17;98465.44;;;14.35;100.00
9063;BME280;4567;42.118;24.746;2022-11-21T02:09:47;98476.69;;;14.46;100.00
9063;BME280;4567;42.118;24.746;2022-11-21T02:12:19;98460.06;;;14.42;100.00
9063;BME280;4567;42.118;24.746;2022-11-21T02:14:50;98457.31;;;14.42;100.00
9063;BME280;4567;42.118;24.746;2022-11-21T02:17:18;98442.53;;;14.50;100.00
9063;BME280;4567;42.118;24.746;2022-11-21T02:19:50;98433.75;;;14.45;100.00
9063;BME280;4567;42.118;24.746;2022-11-21T02:22:26;98421.63;;;14.49;100.00
9063;BME280;4567;42.118;24.746;2022-11-21T02:25:01;98420.00;;;14.48;100.00
9063;BME280;4567;42.118;24.746;2022-11-21T02:27:29;98422.56;;;14.57;100.00
9063;BME280;4567;42.118;24.746;2022-11-21T02:29:56;98402.91;;;14.58;100.00
9063;BME280;4567;42.118;24.746;2022-11-21T02:32:27;98414.06;;;14.65;100.00
9063;BME280;4567;42.118;24.746;2022-11-21T02:34:57;98423.78;;;14.59;100.00
9063;BME280;4567;42.118;24.746;2022-11-21T02:37:23;98410.00;;;14.59;100.00
9063;BME280;4567;42.118;24.746;2022-11-21T02:39:50;98420.66;;;14.61;100.00
9063;BME280;4567;42.118;24.746;2022-11-21T02:42:23;98407.91;;;14.53;100.00
9063;BME280;4567;42.118;24.746;2022-11-21T02:44:56;98402.91;;;14.58;100.00
9063;BME280;4567;42.118;24.746;2022-11-21T02:47:26;98397.97;;;14.48;100.00
9063;BME280;4567;42.118;24.746;2022-11-21T02:49:57;98392.88;;;14.50;100.00
9063;BME280;4567;42.118;24.746;2022-11-21T02:52:25;98378.75;;;14.52;100.00
9063;BME280;4567;42.118;24.746;2022-11-21T02:54:52;98381.56;;;14.55;100.00
9063;BME280;4567;42.118;24.746;2022-11-21T02:57:20;98398.81;;;14.52;99.63
9063;BME280;4567;42.118;24.746;2022-11-21T02:59:47;98394.31;;;14.06;99.54
9063;BME280;4567;42.118;24.746;2022-11-21T03:02:13;98400.72;;;13.94;100.00
9063;BME280;4567;42.118;24.746;2022-11-21T03:04:40;98372.97;;;13.84;100.00
9063;BME280;4567;42.118;24.746;2022-11-21T03:07:07;98397.56;;;13.93;100.00
9063;BME280;4567;42.118;24.746;2022-11-21T03:09:33;98411.97;;;13.86;100.00
9063;BME280;4567;42.118;24.746;2022-11-21T03:12:04;98381.50;;;13.79;100.00
9063;BME280;4567;42.118;24.746;2022-11-21T03:14:33;98417.91;;;13.88;100.00
9063;BME280;4567;42.118;24.746;2022-11-21T03:16:59;98412.97;;;13.78;100.00
9063;BME280;4567;42.118;24.746;2022-11-21T03:19:26;98363.22;;;13.71;100.00
9063;BME280;4567;42.118;24.746;2022-11-21T03:21:53;98408.56;;;13.58;100.00
9063;BME280;4567;42.118;24.746;2022-11-21T03:24:19;98366.94;;;13.44;100.00
9063;BME280;4567;42.118;24.746;2022-11-21T03:26:46;98358.25;;;13.26;100.00
9063;BME280;4567;42.118;24.746;2022-11-21T03:29:13;98394.81;;;13.42;100.00
9063;BME280;4567;42.118;24.746;2022-11-21T03:31:41;98375.44;;;13.54;100.00
9063;BME280;4567;42.118;24.746;2022-11-21T03:34:08;98329.22;;;13.29;100.00
9063;BME280;4567;42.118;24.746;2022-11-21T03:36:35;98341.72;;;13.42;100.00
9063;BME280;4567;42.118;24.746;2022-11-21T03:39:02;98308.53;;;13.35;100.00
9063;BME280;4567;42.118;24.746;2022-11-21T03:41:29;98365.16;;;13.51;100.00
9063;BME280;4567;42.118;24.746;2022-11-21T03:43:56;98364.81;;;13.53;100.00
9063;BME280;4567;42.118;24.746;2022-11-21T03:46:23;98367.63;;;13.56;100.00
9063;BME280;4567;42.118;24.746;2022-11-21T03:48:51;98331.38;;;13.54;100.00
9063;BME280;4567;42.118;24.746;2022-11-21T03:51:18;98369.69;;;13.78;100.00
9063;BME280;4567;42.118;24.746;2022-11-21T03:53:45;98298.34;;;13.54;100.00
9063;BME280;4567;42.118;24.746;2022-11-21T03:56:12;98310.22;;;13.39;100.00
9063;BME280;4567;42.118;24.746;2022-11-21T03:58:39;98365.34;;;13.43;100.00
9063;BME280;4567;42.118;24.746;2022-11-21T04:01:05;98386.03;;;13.37;100.00
9063;BME280;4567;42.118;24.746;2022-11-21T04:03:32;98301.38;;;13.15;100.00
9063;BME280;4567;42.118;24.746;2022-11-21T04:06:01;98326.03;;;13.27;100.00
9063;BME280;4567;42.118;24.746;2022-11-21T04:08:27;98343.75;;;13.45;100.00
9063;BME280;4567;42.118;24.746;2022-11-21T04:10:54;98353.78;;;13.53;100.00
9063;BME280;4567;42.118;24.746;2022-11-21T04:13:21;98343.91;;;13.52;100.00
9063;BME280;4567;42.118;24.746;2022-11-21T04:15:48;98343.38;;;13.62;100.00
9063;BME280;4567;42.118;24.746;2022-11-21T04:18:15;98365.56;;;13.69;100.00
9063;BME280;4567;42.118;24.746;2022-11-21T04:20:42;98371.22;;;13.76;100.00
9063;BME280;4567;42.118;24.746;2022-11-21T04:23:10;98369.44;;;13.68;100.00
9063;BME280;4567;42.118;24.746;2022-11-21T04:25:37;98349.63;;;13.78;100.00
9063;BME280;4567;42.118;24.746;2022-11-21T04:28:04;98354.19;;;13.89;100.00
9063;BME280;4567;42.118;24.746;2022-11-21T04:30:33;98343.28;;;13.93;100.00
9063;BME280;4567;42.118;24.746;2022-11-21T04:33:00;98333.94;;;13.63;100.00
9063;BME280;4567;42.118;24.746;2022-11-21T04:35:26;98347.22;;;13.76;100.00
9063;BME280;4567;42.118;24.746;2022-11-21T04:37:53;98366.88;;;13.75;100.00
9063;BME280;4567;42.118;24.746;2022-11-21T04:40:21;98368.19;;;13.81;100.00
9063;BME280;4567;42.118;24.746;2022-11-21T04:42:48;98320.56;;;13.11;100.00
9063;BME280;4567;42.118;24.746;2022-11-21T04:45:15;98335.47;;;13.26;100.00
9063;BME280;4567;42.118;24.746;2022-11-21T04:47:43;98330.47;;;13.31;100.00
9063;BME280;4567;42.118;24.746;2022-11-21T04:52:40;98350.44;;;13.13;100.00
9063;BME280;4567;42.118;24.746;2022-11-21T04:55:08;98375.03;;;13.21;100.00
9063;BME280;4567;42.118;24.746;2022-11-21T04:57:36;98353.19;;;13.28;100.00
9063;BME280;4567;42.118;24.746;2022-11-21T05:00:04;98348.75;;;12.93;100.00
9063;BME280;4567;42.118;24.746;2022-11-21T05:02:31;98371.22;;;13.10;100.00
9063;BME280;4567;42.118;24.746;2022-11-21T05:04:58;98362.88;;;13.22;100.00
9063;BME280;4567;42.118;24.746;2022-11-21T05:07:25;98347.94;;;13.39;100.00
9063;BME280;4567;42.118;24.746;2022-11-21T05:09:52;98354.50;;;13.50;100.00
9063;BME280;4567;42.118;24.746;2022-11-21T05:12:18;98352.78;;;13.61;100.00
9063;BME280;4567;42.118;24.746;2022-11-21T05:15:04;98352.94;;;13.68;100.00
9063;BME280;4567;42.118;24.746;2022-11-21T05:17:31;98351.41;;;13.70;100.00
9063;BME280;4567;42.118;24.746;2022-11-21T05:19:58;98362.88;;;13.72;100.00
9063;BME280;4567;42.118;24.746;2022-11-21T05:22:24;98326.69;;;13.05;100.00
9063;BME280;4567;42.118;24.746;2022-11-21T05:24:51;98323.09;;;12.89;100.00
9063;BME280;4567;42.118;24.746;2022-11-21T05:27:18;98331.81;;;13.06;100.00
9063;BME280;4567;42.118;24.746;2022-11-21T05:29:44;98344.06;;;13.24;100.00
9063;BME280;4567;42.118;24.746;2022-11-21T05:32:12;98329.22;;;13.29;100.00
9063;BME280;4567;42.118;24.746;2022-11-21T05:34:39;98345.81;;;13.32;100.00
9063;BME280;4567;42.118;24.746;2022-11-21T05:37:06;98340.75;;;13.34;100.00
9063;BME280;4567;42.118;24.746;2022-11-21T05:39:32;98334.72;;;13.29;100.00
9063;BME280;4567;42.118;24.746;2022-11-21T05:41:59;98353.16;;;13.44;100.00
9063;BME280;4567;42.118;24.746;2022-11-21T05:44:25;98363.00;;;13.45;100.00
9063;BME280;4567;42.118;24.746;2022-11-21T05:46:51;98354.16;;;13.51;100.00
9063;BME280;4567;42.118;24.746;2022-11-21T05:49:19;98368.50;;;13.60;100.00
9063;BME280;4567;42.118;24.746;2022-11-21T05:51:46;98379.69;;;13.67;100.00
9063;BME280;4567;42.118;24.746;2022-11-21T05:54:13;98396.75;;;13.57;100.00
9063;BME280;4567;42.118;24.746;2022-11-21T05:56:40;98379.94;;;13.62;100.00
9063;BME280;4567;42.118;24.746;2022-11-21T05:59:08;98388.84;;;13.56;100.00
9063;BME280;4567;42.118;24.746;2022-11-21T06:01:36;98380.50;;;13.52;100.00
9063;BME280;4567;42.118;24.746;2022-11-21T06:04:21;98380.56;;;13.56;100.00
9063;BME280;4567;42.118;24.746;2022-11-21T06:06:48;98360.94;;;13.57;100.00
9063;BME280;4567;42.118;24.746;2022-11-21T06:09:15;98386.19;;;13.59;100.00
9063;BME280;4567;42.118;24.746;2022-11-21T06:11:41;98410.59;;;13.61;100.00
9063;BME280;4567;42.118;24.746;2022-11-21T06:14:08;98400.72;;;13.60;100.00
9063;BME280;4567;42.118;24.746;2022-11-21T06:16:35;98395.22;;;13.60;100.00
9063;BME280;4567;42.118;24.746;2022-11-21T06:19:01;98385.50;;;13.81;100.00
9063;BME280;4567;42.118;24.746;2022-11-21T06:21:29;98383.66;;;14.05;100.00
9063;BME280;4567;42.118;24.746;2022-11-21T06:23:58;98372.94;;;14.19;100.00
9063;BME280;4567;42.118;24.746;2022-11-21T06:26:26;98355.88;;;14.13;100.00
9063;BME280;4567;42.118;24.746;2022-11-21T06:28:53;98367.56;;;14.45;100.00
9063;BME280;4567;42.118;24.746;2022-11-21T06:31:21;98377.44;;;14.46;99.05
9063;BME280;4567;42.118;24.746;2022-11-21T06:33:52;98389.41;;;14.53;99.25
9063;BME280;4567;42.118;24.746;2022-11-21T06:36:19;98384.91;;;14.45;98.88
9063;BME280;4567;42.118;24.746;2022-11-21T06:38:49;98395.75;;;14.35;99.08
9063;BME280;4567;42.118;24.746;2022-11-21T06:41:17;98399.06;;;14.44;98.56
9063;BME280;4567;42.118;24.746;2022-11-21T06:43:44;98391.38;;;14.34;100.00
9063;BME280;4567;42.118;24.746;2022-11-21T06:46:12;98387.47;;;14.35;100.00
9063;BME280;4567;42.118;24.746;2022-11-21T06:48:40;98408.72;;;14.34;100.00
9063;BME280;4567;42.118;24.746;2022-11-21T06:51:10;98410.16;;;14.28;100.00
9063;BME280;4567;42.118;24.746;2022-11-21T06:53:38;98399.00;;;14.21;100.00
9063;BME280;4567;42.118;24.746;2022-11-21T06:56:06;98409.44;;;14.31;100.00
9063;BME280;4567;42.118;24.746;2022-11-21T06:58:32;98407.19;;;14.37;100.00
9063;BME280;4567;42.118;24.746;2022-11-21T07:01:03;98408.13;;;14.44;100.00
9063;BME280;4567;42.118;24.746;2022-11-21T07:03:29;98417.00;;;14.53;100.00
9063;BME280;4567;42.118;24.746;2022-11-21T07:05:58;98430.91;;;14.60;100.00
9063;BME280;4567;42.118;24.746;2022-11-21T07:08:26;98417.34;;;14.71;99.98
9063;BME280;4567;42.118;24.746;2022-11-21T07:10:52;98414.84;;;14.66;100.00
9063;BME280;4567;42.118;24.746;2022-11-21T07:13:21;98417.09;;;14.79;100.00
9063;BME280;4567;42.118;24.746;2022-11-21T07:15:49;98410.34;;;14.77;100.00
9063;BME280;4567;42.118;24.746;2022-11-21T07:18:16;98415.47;;;14.97;99.68
9063;BME280;4567;42.118;24.746;2022-11-21T07:20:43;98411.22;;;15.03;97.65
9063;BME280;4567;42.118;24.746;2022-11-21T07:23:10;98408.78;;;14.98;96.75
9063;BME280;4567;42.118;24.746;2022-11-21T07:25:37;98432.16;;;15.04;95.95
9063;BME280;4567;42.118;24.746;2022-11-21T07:28:06;98440.25;;;15.16;95.19
9063;BME280;4567;42.118;24.746;2022-11-21T07:30:35;98436.50;;;15.28;94.69
9063;BME280;4567;42.118;24.746;2022-11-21T07:33:04;98431.84;;;15.32;94.23
9063;BME280;4567;42.118;24.746;2022-11-21T07:35:31;98424.78;;;15.34;94.44
9063;BME280;4567;42.118;24.746;2022-11-21T07:37:58;98438.53;;;15.31;94.36
9063;BME280;4567;42.118;24.746;2022-11-21T07:40:26;98457.06;;;15.30;94.32
9063;BME280;4567;42.118;24.746;2022-11-21T07:42:53;98442.44;;;15.30;94.72
9063;BME280;4567;42.118;24.746;2022-11-21T07:45:19;98439.75;;;15.33;94.82
9063;BME280;4567;42.118;24.746;2022-11-21T07:47:56;98436.72;;;15.38;94.55
9063;BME280;4567;42.118;24.746;2022-11-21T07:50:22;98436.84;;;15.45;94.79
9063;BME280;4567;42.118;24.746;2022-11-21T07:52:49;98442.69;;;15.40;95.52
9063;BME280;4567;42.118;24.746;2022-11-21T07:55:16;98445.38;;;15.37;96.01
9063;BME280;4567;42.118;24.746;2022-11-21T07:57:42;98446.31;;;15.44;94.80
9063;BME280;4567;42.118;24.746;2022-11-21T08:00:10;98439.38;;;15.54;94.69
9063;BME280;4567;42.118;24.746;2022-11-21T08:02:37;98433.09;;;15.57;94.63
9063;BME280;4567;42.118;24.746;2022-11-21T08:05:05;98445.47;;;15.66;94.64
9063;BME280;4567;42.118;24.746;2022-11-21T08:07:32;98445.63;;;15.77;94.04
9063;BME280;4567;42.118;24.746;2022-11-21T08:09:59;98450.78;;;15.78;94.21
9063;BME280;4567;42.118;24.746;2022-11-21T08:12:25;98468.38;;;15.93;94.18
9063;BME280;4567;42.118;24.746;2022-11-21T08:14:53;98464.56;;;16.01;93.97
9063;BME280;4567;42.118;24.746;2022-11-21T08:17:20;98461.41;;;16.02;93.79
9063;BME280;4567;42.118;24.746;2022-11-21T08:19:47;98453.25;;;16.09;91.93
9063;BME280;4567;42.118;24.746;2022-11-21T08:22:15;98469.66;;;16.25;90.33
9063;BME280;4567;42.118;24.746;2022-11-21T08:24:41;98464.28;;;16.35;87.68
9063;BME280;4567;42.118;24.746;2022-11-21T08:27:08;98466.88;;;16.51;87.00
9063;BME280;4567;42.118;24.746;2022-11-21T08:29:35;98470.97;;;16.60;85.75
9063;BME280;4567;42.118;24.746;2022-11-21T08:32:01;98473.38;;;16.65;83.62
9063;BME280;4567;42.118;24.746;2022-11-21T08:34:29;98468.66;;;16.66;83.89
9063;BME280;4567;42.118;24.746;2022-11-21T08:36:56;98468.81;;;16.80;83.48
9063;BME280;4567;42.118;24.746;2022-11-21T08:39:25;98461.94;;;17.00;80.03
9063;BME280;4567;42.118;24.746;2022-11-21T08:41:52;98468.00;;;17.12;78.84
9063;BME280;4567;42.118;24.746;2022-11-21T08:44:31;98454.91;;;17.09;77.03
9063;BME280;4567;42.118;24.746;2022-11-21T08:46:58;98472.53;;;17.27;78.16
9063;BME280;4567;42.118;24.746;2022-11-21T08:49:25;98467.56;;;17.43;77.21
9063;BME280;4567;42.118;24.746;2022-11-21T08:51:52;98472.09;;;17.62;76.39
9063;BME280;4567;42.118;24.746;2022-11-21T08:54:21;98473.00;;;17.80;67.71
9063;BME280;4567;42.118;24.746;2022-11-21T08:56:49;98470.38;;;17.94;62.70
9063;BME280;4567;42.118;24.746;2022-11-21T08:59:16;98467.28;;;18.02;62.40
9063;BME280;4567;42.118;24.746;2022-11-21T09:01:43;98463.00;;;18.16;62.50
9063;BME280;4567;42.118;24.746;2022-11-21T09:04:10;98463.88;;;18.34;65.71
9063;BME280;4567;42.118;24.746;2022-11-21T09:06:37;98452.09;;;18.44;65.29
9063;BME280;4567;42.118;24.746;2022-11-21T09:09:04;98452.94;;;18.55;64.50
9063;BME280;4567;42.118;24.746;2022-11-21T09:11:31;98451.81;;;18.70;64.70
9063;BME280;4567;42.118;24.746;2022-11-21T09:13:59;98453.84;;;18.87;64.22
9063;BME280;4567;42.118;24.746;2022-11-21T09:16:44;98446.75;;;19.03;60.57
9063;BME280;4567;42.118;24.746;2022-11-21T09:19:28;98436.94;;;19.27;48.58
9063;BME280;4567;42.118;24.746;2022-11-21T09:21:55;98409.09;;;19.16;46.59
9063;BME280;4567;42.118;24.746;2022-11-21T09:24:21;98438.94;;;19.47;46.20
9063;BME280;4567;42.118;24.746;2022-11-21T09:26:48;98440.53;;;19.52;46.87
9063;BME280;4567;42.118;24.746;2022-11-21T09:29:16;98433.75;;;19.53;46.33
9063;BME280;4567;42.118;24.746;2022-11-21T09:31:43;98435.75;;;19.56;46.54
9063;BME280;4567;42.118;24.746;2022-11-21T09:34:10;98443.69;;;19.61;49.12
9063;BME280;4567;42.118;24.746;2022-11-21T09:36:38;98424.25;;;19.50;47.67
9063;BME280;4567;42.118;24.746;2022-11-21T09:39:05;98427.81;;;19.51;43.61
9063;BME280;4567;42.118;24.746;2022-11-21T09:41:36;98418.31;;;19.55;43.45
9063;BME280;4567;42.118;24.746;2022-11-21T09:47:19;98428.22;;;19.77;43.52
9063;BME280;4567;42.118;24.746;2022-11-21T09:49:53;98436.16;;;19.89;42.46
9063;BME280;4567;42.118;24.746;2022-11-21T09:52:26;98435.75;;;20.05;42.17
9063;BME280;4567;42.118;24.746;2022-11-21T09:54:57;98441.69;;;20.07;42.37
9063;BME280;4567;42.118;24.746;2022-11-21T09:57:25;98435.72;;;20.08;43.40
9063;BME280;4567;42.118;24.746;2022-11-21T09:59:53;98441.72;;;20.10;42.21
9063;BME280;4567;42.118;24.746;2022-11-21T10:02:22;98437.72;;;20.22;42.76
9063;BME280;4567;42.118;24.746;2022-11-21T10:04:50;98441.25;;;20.36;40.62
9063;BME280;4567;42.118;24.746;2022-11-21T10:07:21;98440.41;;;20.46;40.37
9063;BME280;4567;42.118;24.746;2022-11-21T10:10:03;98423.75;;;20.43;38.36
9063;BME280;4567;42.118;24.746;2022-11-21T10:12:39;98440.81;;;20.52;38.89
9063;BME280;4567;42.118;24.746;2022-11-21T10:15:23;98431.63;;;20.62;38.92
9063;BME280;4567;42.118;24.746;2022-11-21T10:18:04;98435.97;;;20.70;38.99
9063;BME280;4567;42.118;24.746;2022-11-21T10:20:46;98424.00;;;20.76;38.73
9063;BME280;4567;42.118;24.746;2022-11-21T10:23:34;98426.78;;;20.83;38.82
9063;BME280;4567;42.118;24.746;2022-11-21T10:26:13;98425.53;;;20.88;38.36
9063;BME280;4567;42.118;24.746;2022-11-21T10:28:47;98434.78;;;20.71;38.70
9063;BME280;4567;42.118;24.746;2022-11-21T10:31:18;98426.88;;;20.59;38.31
9063;BME280;4567;42.118;24.746;2022-11-21T10:33:45;98436.44;;;20.54;39.25
9063;BME280;4567;42.118;24.746;2022-11-21T10:36:23;98436.81;;;20.56;41.39
9063;BME280;4567;42.118;24.746;2022-11-21T10:38:54;98456.34;;;20.46;44.10
9063;BME280;4567;42.118;24.746;2022-11-21T10:41:35;98453.19;;;20.33;44.56
9063;BME280;4567;42.118;24.746;2022-11-21T10:44:06;98451.59;;;20.36;45.14
9063;BME280;4567;42.118;24.746;2022-11-21T10:46:56;98456.75;;;20.30;46.54
9063;BME280;4567;42.118;24.746;2022-11-21T10:49:24;98461.97;;;20.25;48.15
9063;BME280;4567;42.118;24.746;2022-11-21T10:51:57;98465.91;;;20.06;49.79
9063;BME280;4567;42.118;24.746;2022-11-21T10:54:25;98463.97;;;20.03;50.92
9063;BME280;4567;42.118;24.746;2022-11-21T10:56:59;98461.97;;;19.93;51.70
9063;BME280;4567;42.118;24.746;2022-11-21T10:59:28;98462.78;;;19.87;53.19
9063;BME280;4567;42.118;24.746;2022-11-21T11:01:58;98468.72;;;19.85;52.36
9063;BME280;4567;42.118;24.746;2022-11-21T11:04:27;98471.91;;;19.84;52.30
9063;BME280;4567;42.118;24.746;2022-11-21T11:06:54;98465.16;;;19.64;52.52
9063;BME280;4567;42.118;24.746;2022-11-21T11:09:27;98464.72;;;19.41;53.88
9063;BME280;4567;42.118;24.746;2022-11-21T11:12:26;98469.09;;;19.45;54.82
9063;BME280;4567;42.118;24.746;2022-11-21T11:15:17;98473.09;;;19.51;54.21
9063;BME280;4567;42.118;24.746;2022-11-21T11:17:48;98439.72;;;19.27;54.42
9063;BME280;4567;42.118;24.746;2022-11-21T11:20:29;98469.03;;;19.21;54.22
9063;BME280;4567;42.118;24.746;2022-11-21T11:22:56;98461.84;;;18.99;54.77
9063;BME280;4567;42.118;24.746;2022-11-21T11:25:22;98468.91;;;18.79;54.81
9063;BME280;4567;42.118;24.746;2022-11-21T11:27:49;98468.13;;;18.82;54.09
9063;BME280;4567;42.118;24.746;2022-11-21T11:30:17;98477.63;;;18.77;54.33
9063;BME280;4567;42.118;24.746;2022-11-21T11:32:44;98475.94;;;18.59;54.50
9063;BME280;4567;42.118;24.746;2022-11-21T11:35:20;98486.19;;;18.44;54.27
9063;BME280;4567;42.118;24.746;2022-11-21T11:37:55;98491.47;;;18.13;54.85
9063;BME280;4567;42.118;24.746;2022-11-21T11:40:28;98499.91;;;18.27;55.48
9063;BME280;4567;42.118;24.746;2022-11-21T11:43:20;98509.75;;;18.17;56.04
9063;BME280;4567;42.118;24.746;2022-11-21T11:46:26;98516.06;;;18.11;56.39
9063;BME280;4567;42.118;24.746;2022-11-21T11:49:32;98523.53;;;18.07;55.08
9063;BME280;4567;42.118;24.746;2022-11-21T11:52:28;98524.31;;;18.07;54.52
9063;BME280;4567;42.118;24.746;2022-11-21T11:55:01;98523.94;;;18.08;53.97
9063;BME280;4567;42.118;24.746;2022-11-21T11:57:30;98528.22;;;17.99;53.42
9063;BME280;4567;42.118;24.746;2022-11-21T12:00:04;98528.13;;;17.85;54.12
9063;BME280;4567;42.118;24.746;2022-11-21T12:02:41;98538.03;;;17.89;54.07
9063;BME280;4567;42.118;24.746;2022-11-21T12:05:18;98526.00;;;17.71;54.30
9063;BME280;4567;42.118;24.746;2022-11-21T12:07:55;98537.22;;;17.45;54.82
9063;BME280;4567;42.118;24.746;2022-11-21T12:10:30;98536.63;;;17.29;55.15
9063;BME280;4567;42.118;24.746;2022-11-21T12:13:04;98540.88;;;17.20;55.79
9063;BME280;4567;42.118;24.746;2022-11-21T12:15:37;98547.22;;;17.20;55.92
9063;BME280;4567;42.118;24.746;2022-11-21T12:18:22;98548.31;;;17.12;55.92
9063;BME280;4567;42.118;24.746;2022-11-21T12:20:56;98561.03;;;17.17;55.72
9063;BME280;4567;42.118;24.746;2022-11-21T12:23:29;98543.50;;;17.09;55.04
9063;BME280;4567;42.118;24.746;2022-11-21T12:26:05;98564.56;;;17.14;54.60
9063;BME280;4567;42.118;24.746;2022-11-21T12:28:47;98577.41;;;17.29;54.78
9063;BME280;4567;42.118;24.746;2022-11-21T12:31:22;98574.56;;;17.25;54.59
9063;BME280;4567;42.118;24.746;2022-11-21T12:33:57;98571.88;;;17.32;53.42
9063;BME280;4567;42.118;24.746;2022-11-21T12:36:34;98576.09;;;17.19;54.08
9063;BME280;4567;42.118;24.746;2022-11-21T12:39:47;98576.47;;;17.18;54.12
9063;BME280;4567;42.118;24.746;2022-11-21T12:42:26;98567.25;;;17.10;54.94
9063;BME280;4567;42.118;24.746;2022-11-21T12:45:25;98576.41;;;17.14;55.11
9063;BME280;4567;42.118;24.746;2022-11-21T12:48:25;98579.66;;;16.90;55.71
9063;BME280;4567;42.118;24.746;2022-11-21T12:54:56;98588.41;;;16.92;55.95
9063;BME280;4567;42.118;24.746;2022-11-21T12:57:38;98611.97;;;16.83;55.78
9063;BME280;4567;42.118;24.746;2022-11-21T13:00:11;98613.53;;;16.80;55.55
9063;BME280;4567;42.118;24.746;2022-11-21T13:02:51;98615.56;;;16.83;54.93
9063;BME280;4567;42.118;24.746;2022-11-21T13:05:25;98611.13;;;16.79;54.57
9063;BME280;4567;42.118;24.746;2022-11-21T13:07:58;98614.50;;;16.91;55.02
9063;BME280;4567;42.118;24.746;2022-11-21T13:10:27;98610.63;;;16.99;54.63
9063;BME280;4567;42.118;24.746;2022-11-21T13:12:59;98598.16;;;17.12;53.70
9063;BME280;4567;42.118;24.746;2022-11-21T13:15:33;98593.41;;;17.13;53.58
9063;BME280;4567;42.118;24.746;2022-11-21T13:18:15;98596.72;;;17.25;53.42
9063;BME280;4567;42.118;24.746;2022-11-21T13:20:46;98595.94;;;17.25;53.03
9063;BME280;4567;42.118;24.746;2022-11-21T13:23:35;98589.72;;;17.35;52.63
9063;BME280;4567;42.118;24.746;2022-11-21T13:29:11;98599.81;;;17.20;53.11
9063;BME280;4567;42.118;24.746;2022-11-21T13:31:39;98612.34;;;17.07;53.62
9063;BME280;4567;42.118;24.746;2022-11-21T13:34:34;98610.53;;;16.92;53.39